createdAt,value
2023-01-15T00:00:00.515Z,100439.75
2023-01-15T00:05:03.757Z,100434.50
2023-01-15T00:10:07.451Z,100433.06
2023-01-15T00:15:12.524Z,100424.38
2023-01-15T00:20:16.910Z,100423.41
2023-01-15T00:25:38.878Z,100421.75
2023-01-15T00:30:43.050Z,100429.81
2023-01-15T00:35:46.027Z,100416.81
2023-01-15T00:40:52.963Z,100409.41
2023-01-15T00:45:55.883Z,100406.03
2023-01-15T00:50:58.789Z,100412.09
2023-01-15T00:56:01.648Z,100414.13
2023-01-15T01:01:04.697Z,100401.97
2023-01-15T01:06:10.219Z,100392.00
2023-01-15T01:11:19.745Z,100400.72
2023-01-15T01:16:26.108Z,100397.22
2023-01-15T01:21:30.071Z,100394.72
2023-01-15T01:26:33.023Z,100376.63
2023-01-15T01:31:36.089Z,100374.09
2023-01-15T01:36:42.139Z,100370.84
2023-01-15T01:41:47.526Z,100370.97
2023-01-15T01:46:50.476Z,100354.50
2023-01-15T01:52:16.719Z,100352.84
2023-01-15T01:57:21.391Z,100346.13
2023-01-15T02:02:24.377Z,100344.56
2023-01-15T02:07:27.485Z,100336.72
2023-01-15T02:12:38.094Z,100336.59
2023-01-15T02:18:29.038Z,100337.44
2023-01-15T02:24:06.911Z,100316.47
2023-01-15T02:29:18.139Z,100308.72
2023-01-15T02:34:29.708Z,100301.31
2023-01-15T02:39:36.151Z,100292.72
2023-01-15T02:44:47.091Z,100295.53
2023-01-15T02:49:51.940Z,100293.66
2023-01-15T02:55:12.872Z,100293.75
2023-01-15T03:00:19.384Z,100282.56
2023-01-15T03:05:31.761Z,100280.91
2023-01-15T03:11:13.854Z,100277.31
2023-01-15T03:16:40.354Z,100281.72
2023-01-15T03:22:03.064Z,100277.44
2023-01-15T03:27:07.007Z,100273.34
2023-01-15T03:32:10.612Z,100273.47
2023-01-15T03:37:14.198Z,100270.03
2023-01-15T03:42:44.610Z,100259.53
2023-01-15T03:48:21.626Z,100257.84
2023-01-15T03:53:29.682Z,100266.44
2023-01-15T03:58:53.731Z,100269.19
2023-01-15T04:03:57.983Z,100263.19
2023-01-15T04:09:03.255Z,100271.16
2023-01-15T04:14:06.911Z,100262.69
2023-01-15T04:19:09.959Z,100255.88
2023-01-15T04:24:12.832Z,100235.50
2023-01-15T04:29:15.844Z,100232.03
2023-01-15T04:34:19.833Z,100244.19
2023-01-15T04:39:23.134Z,100239.91
2023-01-15T04:44:27.772Z,100232.25
2023-01-15T04:49:30.969Z,100242.81
2023-01-15T04:54:33.845Z,100238.75
2023-01-15T04:59:36.743Z,100244.09
2023-01-15T05:04:39.641Z,100228.38
2023-01-15T05:09:42.887Z,100236.13
2023-01-15T05:14:46.316Z,100217.91
2023-01-15T05:19:49.237Z,100226.47
2023-01-15T05:24:52.210Z,100217.91
2023-01-15T05:29:55.072Z,100198.88
2023-01-15T05:34:57.834Z,100197.81
2023-01-15T05:40:00.794Z,100201.25
2023-01-15T05:45:04.456Z,100192.47
2023-01-15T05:50:07.844Z,100178.41
2023-01-15T05:55:10.769Z,100171.31
2023-01-15T06:00:14.784Z,100166.28
2023-01-15T06:05:21.141Z,100167.22
2023-01-15T06:10:23.997Z,100168.91
2023-01-15T06:15:27.054Z,100166.28
2023-01-15T06:20:30.277Z,100168.78
2023-01-15T06:25:37.473Z,100173.81
2023-01-15T06:30:40.749Z,100165.84
2023-01-15T06:35:43.450Z,100163.97
2023-01-15T06:40:46.489Z,100150.88
2023-01-15T06:46:08.426Z,100153.91
2023-01-15T06:51:15.277Z,100164.13
2023-01-15T06:56:18.073Z,100154.72
2023-01-15T07:01:20.980Z,100155.25
2023-01-15T07:06:26.396Z,100144.66
2023-01-15T07:11:29.478Z,100150.41
2023-01-15T07:16:37.534Z,100143.88
2023-01-15T07:21:41.367Z,100146.97
2023-01-15T07:26:45.777Z,100147.41
2023-01-15T07:31:49.674Z,100141.78
2023-01-15T07:36:52.615Z,100141.34
2023-01-15T07:42:15.374Z,100132.94
2023-01-15T07:47:43.521Z,100134.16
2023-01-15T07:52:46.804Z,100128.56
2023-01-15T07:57:49.598Z,100123.72
2023-01-15T08:02:52.487Z,100118.97
2023-01-15T08:07:55.409Z,100110.25
2023-01-15T08:13:16.611Z,100118.63
2023-01-15T08:18:19.878Z,100109.31
2023-01-15T08:23:22.733Z,100105.53
2023-01-15T08:28:25.691Z,100112.59
2023-01-15T08:33:28.617Z,100113.91
2023-01-15T08:38:31.521Z,100110.81
2023-01-15T08:43:34.423Z,100110.19
2023-01-15T08:48:37.519Z,100104.13
2023-01-15T08:53:40.881Z,100104.00
2023-01-15T08:58:47.210Z,100091.91
2023-01-15T09:03:50.265Z,100082.97
2023-01-15T09:08:53.469Z,100080.31
2023-01-15T09:13:56.408Z,100071.56
2023-01-15T09:18:59.852Z,100056.03
2023-01-15T09:24:03.075Z,100043.53
2023-01-15T09:29:08.768Z,100034.41
2023-01-15T09:34:11.765Z,100033.25
2023-01-15T09:39:14.653Z,100021.69
2023-01-15T09:44:58.210Z,100000.91
2023-01-15T09:50:35.014Z,99993.66
2023-01-15T09:55:47.911Z,99976.28
2023-01-15T10:00:52.412Z,99973.00
2023-01-15T10:06:10.339Z,99974.41
2023-01-15T10:11:16.402Z,99955.81
2023-01-15T10:16:29.390Z,99939.75
2023-01-15T10:21:58.260Z,99928.41
2023-01-15T11:31:22.412Z,99800.69
2023-01-15T11:36:29.024Z,99800.50
2023-01-15T11:41:53.592Z,99783.56
2023-01-15T11:47:15.442Z,99759.19
2023-01-15T11:52:22.658Z,99745.69
2023-01-15T11:57:33.933Z,99724.44
2023-01-15T12:02:43.413Z,99723.28
2023-01-15T12:07:48.415Z,99727.44
2023-01-15T12:13:54.955Z,99727.50
2023-01-15T12:20:02.973Z,99720.94
2023-01-15T12:25:19.891Z,99715.97
2023-01-15T12:30:42.405Z,99704.88
2023-01-15T12:35:56.943Z,99706.84
2023-01-15T12:41:10.215Z,99702.72
2023-01-15T12:46:24.850Z,99699.38
2023-01-15T12:51:54.140Z,99698.34
2023-01-15T12:57:18.197Z,99681.31
2023-01-15T13:02:28.790Z,99672.72
2023-01-15T13:07:49.447Z,99667.44
2023-01-15T13:12:55.503Z,99662.69
2023-01-15T13:18:35.421Z,99665.03
2023-01-15T13:24:07.528Z,99664.19
2023-01-15T13:29:22.566Z,99658.94
2023-01-15T13:34:49.644Z,99654.25
2023-01-15T13:40:23.066Z,99657.63
2023-01-15T13:45:40.410Z,99639.66
2023-01-15T13:50:59.325Z,99643.72
2023-01-15T13:56:15.105Z,99626.25
2023-01-15T14:01:18.094Z,99621.59
2023-01-15T14:06:21.056Z,99623.31
2023-01-15T14:11:35.971Z,99626.06
2023-01-15T14:17:08.728Z,99615.81
2023-01-15T14:22:45.092Z,99617.94
2023-01-15T14:28:06.111Z,99616.75
2023-01-15T14:33:38.027Z,99618.84
2023-01-15T14:38:57.056Z,99604.44
2023-01-15T14:44:03.550Z,99608.38
2023-01-15T14:49:28.379Z,99611.47
2023-01-15T14:54:32.562Z,99606.94
2023-01-15T14:59:56.583Z,99613.50
2023-01-15T15:05:01.823Z,99606.03
2023-01-15T15:10:26.999Z,99599.38
2023-01-15T15:15:54.534Z,99583.91
2023-01-15T15:21:06.817Z,99572.16
2023-01-15T15:26:32.785Z,99568.84
2023-01-15T15:32:01.720Z,99560.41
2023-01-15T15:37:23.252Z,99556.28
2023-01-15T15:42:58.283Z,99558.91
2023-01-15T15:48:42.332Z,99550.31
2023-01-15T15:53:45.254Z,99557.53
2023-01-15T15:58:49.067Z,99553.25
2023-01-15T16:03:51.917Z,99561.16
2023-01-15T16:09:04.931Z,99556.88
2023-01-15T16:14:12.556Z,99548.25
2023-01-15T16:19:25.647Z,99555.50
2023-01-15T16:24:29.785Z,99553.13
2023-01-15T16:29:35.217Z,99553.28
2023-01-15T16:34:38.655Z,99554.59
2023-01-15T16:39:46.526Z,99561.13
2023-01-15T16:45:25.095Z,99555.03
2023-01-15T16:50:32.529Z,99545.75
2023-01-15T16:55:40.378Z,99551.34
2023-01-15T17:00:50.995Z,99540.41
2023-01-15T17:06:03.636Z,99537.53
2023-01-15T17:11:24.483Z,99532.56
2023-01-15T17:16:27.267Z,99530.34
2023-01-15T17:21:30.268Z,99522.06
2023-01-15T17:26:33.707Z,99518.09
2023-01-15T17:31:36.671Z,99529.72
2023-01-15T17:36:40.162Z,99532.00
2023-01-15T17:41:43.147Z,99536.69
2023-01-15T17:46:46.690Z,99521.75
2023-01-15T17:51:50.309Z,99533.53
2023-01-15T17:57:11.875Z,99532.16
2023-01-15T18:02:34.770Z,99535.63
2023-01-15T18:07:42.247Z,99530.53
2023-01-15T18:12:45.522Z,99539.34
2023-01-15T18:17:48.650Z,99523.44
2023-01-15T18:22:52.011Z,99521.66
2023-01-15T18:27:55.070Z,99527.72
2023-01-15T18:32:58.805Z,99518.88
2023-01-15T18:38:02.257Z,99523.44
2023-01-15T18:43:23.415Z,99518.78
2023-01-15T18:48:26.209Z,99538.13
2023-01-15T18:53:29.150Z,99528.19
2023-01-15T18:58:32.071Z,99536.78
2023-01-15T19:03:34.951Z,99530.81
2023-01-15T19:08:38.146Z,99522.94
2023-01-15T19:13:41.056Z,99524.88
2023-01-15T19:18:53.408Z,99527.81
2023-01-15T19:23:56.488Z,99529.31
2023-01-15T19:28:59.503Z,99519.63
2023-01-15T19:34:32.186Z,99516.84
2023-01-15T19:39:30.781Z,99520.19
2023-01-15T19:44:53.387Z,99514.75
2023-01-15T19:50:18.192Z,99499.97
2023-01-15T19:55:24.048Z,99510.31
2023-01-15T20:00:28.888Z,99506.31
2023-01-15T20:05:33.061Z,99514.38
2023-01-15T20:10:38.590Z,99509.09
2023-01-15T20:15:45.536Z,99496.63
2023-01-15T20:20:49.342Z,99490.53
2023-01-15T20:25:53.437Z,99500.53
2023-01-15T20:30:57.649Z,99506.78
2023-01-15T20:36:05.590Z,99521.84
2023-01-15T20:41:29.444Z,99509.00
2023-01-15T20:46:32.322Z,99522.16
2023-01-15T20:51:35.100Z,99526.59
2023-01-15T20:56:37.877Z,99517.16
2023-01-15T21:01:41.681Z,99514.69
2023-01-15T21:06:44.967Z,99514.97
2023-01-15T21:11:48.015Z,99508.88
2023-01-15T21:16:51.793Z,99507.22
2023-01-15T21:21:54.866Z,99506.41
2023-01-15T21:26:57.757Z,99513.72
2023-01-15T21:32:00.740Z,99503.50
2023-01-15T21:37:03.661Z,99515.28
2023-01-15T21:42:24.951Z,99506.72
2023-01-15T21:47:27.942Z,99499.97
2023-01-15T21:52:33.586Z,99499.97
2023-01-15T21:57:36.627Z,99493.16
2023-01-15T22:02:39.445Z,99495.78
2023-01-15T22:07:42.507Z,99494.81
2023-01-15T22:12:45.695Z,99485.28
2023-01-15T22:17:54.291Z,99473.09
2023-01-15T22:22:57.229Z,99491.09
2023-01-15T22:28:00.160Z,99489.88
2023-01-15T22:33:03.252Z,99476.59
2023-01-15T22:38:06.351Z,99467.03
2023-01-15T22:43:09.284Z,99469.66
2023-01-15T22:48:12.354Z,99473.84
2023-01-15T22:53:15.558Z,99476.88
2023-01-15T22:58:21.815Z,99472.72
2023-01-15T23:03:24.904Z,99467.63
2023-01-15T23:08:32.203Z,99486.00
2023-01-15T23:13:35.241Z,99484.50
2023-01-15T23:18:38.260Z,99471.53
2023-01-15T23:23:41.506Z,99461.13
2023-01-15T23:28:44.927Z,99461.41
2023-01-15T23:33:47.859Z,99452.97
2023-01-15T23:38:50.934Z,99433.09
2023-01-15T23:44:12.707Z,99422.69
2023-01-15T23:49:18.684Z,99415.13
2023-01-15T23:54:25.461Z,99431.03
2023-01-15T23:59:29.436Z,99426.88
